sensor_id;sensor_type;location;lat;lon;timestamp;P1;durP1;ratioP1;P2;durP2;ratioP2
86201;SDS011;76853;48.008;20.694;2024-03-17T00:00:17;61.05;;;60.22;;
86201;SDS011;76853;48.008;20.694;2024-03-17T00:01:21;62.10;;;61.95;;
86201;SDS011;76853;48.008;20.694;2024-03-17T00:02:23;62.32;;;62.20;;
86201;SDS011;76853;48.008;20.694;2024-03-17T00:03:25;61.63;;;60.98;;
86201;SDS011;76853;48.008;20.694;2024-03-17T00:04:28;60.82;;;60.12;;
86201;SDS011;76853;48.008;20.694;2024-03-17T00:05:30;59.65;;;59.08;;
86201;SDS011;76853;48.008;20.694;2024-03-17T00:06:32;58.57;;;58.18;;
86201;SDS011;76853;48.008;20.694;2024-03-17T00:07:35;60.38;;;60.25;;
86201;SDS011;76853;48.008;20.694;2024-03-17T00:08:37;62.05;;;61.57;;
86201;SDS011;76853;48.008;20.694;2024-03-17T00:09:40;64.42;;;63.77;;
86201;SDS011;76853;48.008;20.694;2024-03-17T00:10:43;68.08;;;66.37;;
86201;SDS011;76853;48.008;20.694;2024-03-17T00:11:45;64.37;;;64.15;;
86201;SDS011;76853;48.008;20.694;2024-03-17T00:12:47;65.32;;;64.77;;
86201;SDS011;76853;48.008;20.694;2024-03-17T00:13:50;69.07;;;67.83;;
86201;SDS011;76853;48.008;20.694;2024-03-17T00:14:52;68.73;;;67.40;;
86201;SDS011;76853;48.008;20.694;2024-03-17T00:15:55;68.37;;;68.03;;
86201;SDS011;76853;48.008;20.694;2024-03-17T00:16:57;67.52;;;67.02;;
86201;SDS011;76853;48.008;20.694;2024-03-17T00:18:03;69.17;;;67.63;;
86201;SDS011;76853;48.008;20.694;2024-03-17T00:19:06;66.93;;;66.55;;
86201;SDS011;76853;48.008;20.694;2024-03-17T00:20:08;68.27;;;67.37;;
86201;SDS011;76853;48.008;20.694;2024-03-17T00:21:20;70.27;;;69.52;;
86201;SDS011;76853;48.008;20.694;2024-03-17T00:22:22;71.02;;;70.13;;
86201;SDS011;76853;48.008;20.694;2024-03-17T00:23:24;72.12;;;70.72;;
86201;SDS011;76853;48.008;20.694;2024-03-17T00:24:27;71.38;;;70.68;;
86201;SDS011;76853;48.008;20.694;2024-03-17T00:25:36;72.23;;;71.17;;
86201;SDS011;76853;48.008;20.694;2024-03-17T00:26:39;81.20;;;79.63;;
86201;SDS011;76853;48.008;20.694;2024-03-17T00:27:42;76.38;;;75.87;;
86201;SDS011;76853;48.008;20.694;2024-03-17T00:28:46;81.50;;;80.83;;
86201;SDS011;76853;48.008;20.694;2024-03-17T00:29:49;75.62;;;75.57;;
86201;SDS011;76853;48.008;20.694;2024-03-17T00:30:52;59.17;;;58.95;;
86201;SDS011;76853;48.008;20.694;2024-03-17T00:31:54;56.93;;;56.68;;
86201;SDS011;76853;48.008;20.694;2024-03-17T00:32:57;55.28;;;55.02;;
86201;SDS011;76853;48.008;20.694;2024-03-17T00:34:03;57.05;;;56.30;;
86201;SDS011;76853;48.008;20.694;2024-03-17T00:35:09;54.95;;;54.62;;
86201;SDS011;76853;48.008;20.694;2024-03-17T00:36:13;54.37;;;53.68;;
86201;SDS011;76853;48.008;20.694;2024-03-17T00:37:16;56.23;;;55.48;;
86201;SDS011;76853;48.008;20.694;2024-03-17T00:38:19;54.72;;;54.18;;
86201;SDS011;76853;48.008;20.694;2024-03-17T00:39:21;54.12;;;53.95;;
86201;SDS011;76853;48.008;20.694;2024-03-17T00:40:24;57.38;;;56.87;;
86201;SDS011;76853;48.008;20.694;2024-03-17T00:41:26;61.35;;;59.57;;
86201;SDS011;76853;48.008;20.694;2024-03-17T00:42:29;58.17;;;57.83;;
86201;SDS011;76853;48.008;20.694;2024-03-17T00:43:34;59.00;;;58.62;;
86201;SDS011;76853;48.008;20.694;2024-03-17T00:44:38;62.15;;;61.88;;
86201;SDS011;76853;48.008;20.694;2024-03-17T00:45:50;70.28;;;68.75;;
86201;SDS011;76853;48.008;20.694;2024-03-17T00:46:56;73.72;;;72.05;;
86201;SDS011;76853;48.008;20.694;2024-03-17T00:47:58;74.75;;;73.92;;
86201;SDS011;76853;48.008;20.694;2024-03-17T00:49:00;72.40;;;72.02;;
86201;SDS011;76853;48.008;20.694;2024-03-17T00:50:03;68.47;;;68.02;;
86201;SDS011;76853;48.008;20.694;2024-03-17T00:51:08;65.57;;;64.45;;
86201;SDS011;76853;48.008;20.694;2024-03-17T00:52:15;67.98;;;67.37;;
86201;SDS011;76853;48.008;20.694;2024-03-17T00:53:20;68.53;;;67.18;;
86201;SDS011;76853;48.008;20.694;2024-03-17T00:54:23;66.48;;;65.78;;
86201;SDS011;76853;48.008;20.694;2024-03-17T00:55:25;68.02;;;67.33;;
86201;SDS011;76853;48.008;20.694;2024-03-17T00:56:27;68.48;;;67.43;;
86201;SDS011;76853;48.008;20.694;2024-03-17T00:57:30;67.72;;;65.93;;
86201;SDS011;76853;48.008;20.694;2024-03-17T00:58:32;65.62;;;64.88;;
86201;SDS011;76853;48.008;20.694;2024-03-17T00:59:35;78.02;;;76.22;;
86201;SDS011;76853;48.008;20.694;2024-03-17T01:00:37;76.62;;;75.40;;
86201;SDS011;76853;48.008;20.694;2024-03-17T01:01:39;66.05;;;65.90;;
86201;SDS011;76853;48.008;20.694;2024-03-17T01:02:42;63.78;;;63.72;;
86201;SDS011;76853;48.008;20.694;2024-03-17T01:03:45;63.48;;;61.68;;
86201;SDS011;76853;48.008;20.694;2024-03-17T01:04:54;63.72;;;63.05;;
86201;SDS011;76853;48.008;20.694;2024-03-17T01:05:56;67.30;;;65.93;;
86201;SDS011;76853;48.008;20.694;2024-03-17T01:07:01;71.72;;;70.60;;
86201;SDS011;76853;48.008;20.694;2024-03-17T01:08:03;72.72;;;72.35;;
86201;SDS011;76853;48.008;20.694;2024-03-17T01:09:06;76.93;;;76.45;;
86201;SDS011;76853;48.008;20.694;2024-03-17T01:10:10;81.63;;;81.12;;
86201;SDS011;76853;48.008;20.694;2024-03-17T01:11:15;76.57;;;76.45;;
86201;SDS011;76853;48.008;20.694;2024-03-17T01:12:21;75.38;;;75.25;;
86201;SDS011;76853;48.008;20.694;2024-03-17T01:13:23;76.83;;;76.38;;
86201;SDS011;76853;48.008;20.694;2024-03-17T01:14:27;75.30;;;75.18;;
86201;SDS011;76853;48.008;20.694;2024-03-17T01:15:29;74.20;;;74.03;;
86201;SDS011;76853;48.008;20.694;2024-03-17T01:16:31;71.22;;;71.10;;
86201;SDS011;76853;48.008;20.694;2024-03-17T01:17:35;71.10;;;70.88;;
86201;SDS011;76853;48.008;20.694;2024-03-17T01:18:37;75.07;;;74.32;;
86201;SDS011;76853;48.008;20.694;2024-03-17T01:19:42;77.18;;;76.80;;
86201;SDS011;76853;48.008;20.694;2024-03-17T01:20:44;73.85;;;73.77;;
86201;SDS011;76853;48.008;20.694;2024-03-17T01:21:46;75.05;;;74.55;;
86201;SDS011;76853;48.008;20.694;2024-03-17T01:22:48;79.48;;;78.75;;
86201;SDS011;76853;48.008;20.694;2024-03-17T01:23:52;87.52;;;87.03;;
86201;SDS011;76853;48.008;20.694;2024-03-17T01:24:54;82.53;;;82.18;;
86201;SDS011;76853;48.008;20.694;2024-03-17T01:25:57;90.12;;;89.78;;
86201;SDS011;76853;48.008;20.694;2024-03-17T01:26:59;89.05;;;88.37;;
86201;SDS011;76853;48.008;20.694;2024-03-17T01:28:03;90.10;;;88.95;;
86201;SDS011;76853;48.008;20.694;2024-03-17T01:29:06;89.63;;;87.83;;
86201;SDS011;76853;48.008;20.694;2024-03-17T01:30:12;91.37;;;89.37;;
86201;SDS011;76853;48.008;20.694;2024-03-17T01:31:15;99.08;;;96.95;;
86201;SDS011;76853;48.008;20.694;2024-03-17T01:32:17;102.82;;;100.97;;
86201;SDS011;76853;48.008;20.694;2024-03-17T01:33:21;101.43;;;100.03;;
86201;SDS011;76853;48.008;20.694;2024-03-17T01:34:24;98.27;;;96.65;;
86201;SDS011;76853;48.008;20.694;2024-03-17T01:35:26;96.35;;;95.63;;
86201;SDS011;76853;48.008;20.694;2024-03-17T01:36:29;95.60;;;93.50;;
86201;SDS011;76853;48.008;20.694;2024-03-17T01:37:32;83.10;;;81.57;;
86201;SDS011;76853;48.008;20.694;2024-03-17T01:38:34;75.48;;;74.75;;
86201;SDS011;76853;48.008;20.694;2024-03-17T01:39:37;72.30;;;70.62;;
86201;SDS011;76853;48.008;20.694;2024-03-17T01:40:39;70.55;;;69.52;;
86201;SDS011;76853;48.008;20.694;2024-03-17T01:41:42;71.25;;;70.85;;
86201;SDS011;76853;48.008;20.694;2024-03-17T01:42:45;72.33;;;71.33;;
86201;SDS011;76853;48.008;20.694;2024-03-17T01:43:48;68.42;;;67.47;;
86201;SDS011;76853;48.008;20.694;2024-03-17T01:44:50;71.92;;;70.83;;
86201;SDS011;76853;48.008;20.694;2024-03-17T01:45:53;69.27;;;68.83;;
86201;SDS011;76853;48.008;20.694;2024-03-17T01:46:56;63.77;;;62.80;;
86201;SDS011;76853;48.008;20.694;2024-03-17T01:47:59;61.27;;;60.62;;
86201;SDS011;76853;48.008;20.694;2024-03-17T01:49:04;59.98;;;59.42;;
86201;SDS011;76853;48.008;20.694;2024-03-17T01:50:08;71.33;;;70.38;;
86201;SDS011;76853;48.008;20.694;2024-03-17T01:51:15;75.05;;;74.70;;
86201;SDS011;76853;48.008;20.694;2024-03-17T01:52:19;76.82;;;75.97;;
86201;SDS011;76853;48.008;20.694;2024-03-17T01:53:22;79.40;;;77.82;;
86201;SDS011;76853;48.008;20.694;2024-03-17T01:54:27;77.20;;;77.00;;
86201;SDS011;76853;48.008;20.694;2024-03-17T01:55:30;76.82;;;76.12;;
86201;SDS011;76853;48.008;20.694;2024-03-17T01:56:35;79.23;;;78.07;;
86201;SDS011;76853;48.008;20.694;2024-03-17T01:57:37;75.72;;;75.32;;
86201;SDS011;76853;48.008;20.694;2024-03-17T01:58:42;79.50;;;78.05;;
86201;SDS011;76853;48.008;20.694;2024-03-17T01:59:46;81.60;;;80.87;;
86201;SDS011;76853;48.008;20.694;2024-03-17T02:00:48;76.37;;;76.23;;
86201;SDS011;76853;48.008;20.694;2024-03-17T02:01:53;78.20;;;77.50;;
86201;SDS011;76853;48.008;20.694;2024-03-17T02:02:55;76.30;;;75.60;;
86201;SDS011;76853;48.008;20.694;2024-03-17T02:03:57;78.23;;;77.90;;
86201;SDS011;76853;48.008;20.694;2024-03-17T02:05:00;79.02;;;77.83;;
86201;SDS011;76853;48.008;20.694;2024-03-17T02:06:04;73.22;;;72.28;;
86201;SDS011;76853;48.008;20.694;2024-03-17T02:07:06;69.50;;;68.15;;
86201;SDS011;76853;48.008;20.694;2024-03-17T02:08:10;62.52;;;61.72;;
86201;SDS011;76853;48.008;20.694;2024-03-17T02:09:12;59.02;;;58.63;;
86201;SDS011;76853;48.008;20.694;2024-03-17T02:10:15;60.37;;;60.08;;
86201;SDS011;76853;48.008;20.694;2024-03-17T02:11:24;70.53;;;69.62;;
86201;SDS011;76853;48.008;20.694;2024-03-17T02:12:30;77.12;;;76.68;;
86201;SDS011;76853;48.008;20.694;2024-03-17T02:13:34;76.85;;;76.63;;
86201;SDS011;76853;48.008;20.694;2024-03-17T02:14:36;69.75;;;68.87;;
86201;SDS011;76853;48.008;20.694;2024-03-17T02:15:38;63.90;;;63.37;;
86201;SDS011;76853;48.008;20.694;2024-03-17T02:16:42;66.53;;;66.07;;
86201;SDS011;76853;48.008;20.694;2024-03-17T02:17:46;68.13;;;66.58;;
86201;SDS011;76853;48.008;20.694;2024-03-17T02:18:48;69.12;;;68.92;;
86201;SDS011;76853;48.008;20.694;2024-03-17T02:19:51;65.30;;;64.28;;
86201;SDS011;76853;48.008;20.694;2024-03-17T02:20:55;61.48;;;61.28;;
86201;SDS011;76853;48.008;20.694;2024-03-17T02:21:57;59.70;;;59.35;;
86201;SDS011;76853;48.008;20.694;2024-03-17T02:22:59;60.90;;;58.85;;
86201;SDS011;76853;48.008;20.694;2024-03-17T02:24:02;59.18;;;57.95;;
86201;SDS011;76853;48.008;20.694;2024-03-17T02:25:04;60.30;;;59.62;;
86201;SDS011;76853;48.008;20.694;2024-03-17T02:26:09;58.62;;;57.88;;
86201;SDS011;76853;48.008;20.694;2024-03-17T02:27:12;58.53;;;57.15;;
86201;SDS011;76853;48.008;20.694;2024-03-17T02:28:15;58.63;;;57.25;;
86201;SDS011;76853;48.008;20.694;2024-03-17T02:29:18;58.28;;;57.20;;
86201;SDS011;76853;48.008;20.694;2024-03-17T02:30:20;57.88;;;57.08;;
86201;SDS011;76853;48.008;20.694;2024-03-17T02:31:23;59.78;;;58.57;;
86201;SDS011;76853;48.008;20.694;2024-03-17T02:32:25;59.35;;;58.17;;
86201;SDS011;76853;48.008;20.694;2024-03-17T02:33:29;69.50;;;68.67;;
86201;SDS011;76853;48.008;20.694;2024-03-17T02:34:32;67.65;;;67.05;;
86201;SDS011;76853;48.008;20.694;2024-03-17T02:35:37;65.55;;;64.92;;
86201;SDS011;76853;48.008;20.694;2024-03-17T02:36:39;65.93;;;65.03;;
86201;SDS011;76853;48.008;20.694;2024-03-17T02:37:42;65.45;;;64.25;;
86201;SDS011;76853;48.008;20.694;2024-03-17T02:38:45;65.57;;;64.62;;
86201;SDS011;76853;48.008;20.694;2024-03-17T02:40:06;66.03;;;65.47;;
86201;SDS011;76853;48.008;20.694;2024-03-17T02:41:09;62.33;;;61.57;;
86201;SDS011;76853;48.008;20.694;2024-03-17T02:42:11;68.67;;;68.10;;
86201;SDS011;76853;48.008;20.694;2024-03-17T02:43:13;71.88;;;71.08;;
86201;SDS011;76853;48.008;20.694;2024-03-17T02:44:16;72.63;;;72.03;;
86201;SDS011;76853;48.008;20.694;2024-03-17T02:45:18;72.57;;;71.82;;
86201;SDS011;76853;48.008;20.694;2024-03-17T02:46:23;69.00;;;68.25;;
86201;SDS011;76853;48.008;20.694;2024-03-17T02:47:26;64.63;;;63.68;;
86201;SDS011;76853;48.008;20.694;2024-03-17T02:48:29;62.57;;;61.45;;
86201;SDS011;76853;48.008;20.694;2024-03-17T02:49:32;63.97;;;63.28;;
86201;SDS011;76853;48.008;20.694;2024-03-17T02:50:41;63.03;;;62.23;;
86201;SDS011;76853;48.008;20.694;2024-03-17T02:51:45;63.35;;;62.60;;
86201;SDS011;76853;48.008;20.694;2024-03-17T02:52:47;60.85;;;60.23;;
86201;SDS011;76853;48.008;20.694;2024-03-17T02:53:49;61.83;;;61.22;;
86201;SDS011;76853;48.008;20.694;2024-03-17T02:54:52;59.53;;;58.68;;
86201;SDS011;76853;48.008;20.694;2024-03-17T02:55:55;58.85;;;58.07;;
86201;SDS011;76853;48.008;20.694;2024-03-17T02:56:57;60.32;;;58.90;;
86201;SDS011;76853;48.008;20.694;2024-03-17T02:58:00;59.67;;;58.88;;
86201;SDS011;76853;48.008;20.694;2024-03-17T02:59:02;58.78;;;57.50;;
86201;SDS011;76853;48.008;20.694;2024-03-17T03:00:05;59.88;;;58.58;;
86201;SDS011;76853;48.008;20.694;2024-03-17T03:01:14;58.32;;;57.27;;
86201;SDS011;76853;48.008;20.694;2024-03-17T03:02:17;59.30;;;58.25;;
86201;SDS011;76853;48.008;20.694;2024-03-17T03:03:20;59.07;;;58.07;;
86201;SDS011;76853;48.008;20.694;2024-03-17T03:04:24;61.52;;;60.70;;
86201;SDS011;76853;48.008;20.694;2024-03-17T03:05:26;60.07;;;59.02;;
86201;SDS011;76853;48.008;20.694;2024-03-17T03:06:29;60.03;;;58.90;;
86201;SDS011;76853;48.008;20.694;2024-03-17T03:07:31;60.12;;;58.88;;
86201;SDS011;76853;48.008;20.694;2024-03-17T03:08:33;59.47;;;58.25;;
86201;SDS011;76853;48.008;20.694;2024-03-17T03:09:36;57.08;;;56.48;;
86201;SDS011;76853;48.008;20.694;2024-03-17T03:10:38;58.55;;;57.45;;
86201;SDS011;76853;48.008;20.694;2024-03-17T03:11:45;61.72;;;60.70;;
86201;SDS011;76853;48.008;20.694;2024-03-17T03:12:48;63.22;;;61.97;;
86201;SDS011;76853;48.008;20.694;2024-03-17T03:13:51;66.55;;;65.30;;
86201;SDS011;76853;48.008;20.694;2024-03-17T03:14:53;66.62;;;65.48;;
86201;SDS011;76853;48.008;20.694;2024-03-17T03:15:55;65.63;;;65.17;;
86201;SDS011;76853;48.008;20.694;2024-03-17T03:16:58;62.73;;;61.47;;
86201;SDS011;76853;48.008;20.694;2024-03-17T03:18:00;61.03;;;60.03;;
86201;SDS011;76853;48.008;20.694;2024-03-17T03:19:03;62.17;;;60.75;;
86201;SDS011;76853;48.008;20.694;2024-03-17T03:20:07;61.33;;;60.02;;
86201;SDS011;76853;48.008;20.694;2024-03-17T03:21:15;60.33;;;58.92;;
86201;SDS011;76853;48.008;20.694;2024-03-17T03:22:18;58.48;;;57.25;;
86201;SDS011;76853;48.008;20.694;2024-03-17T03:23:27;60.83;;;59.87;;
86201;SDS011;76853;48.008;20.694;2024-03-17T03:24:29;60.30;;;59.27;;
86201;SDS011;76853;48.008;20.694;2024-03-17T03:25:31;59.93;;;58.90;;
86201;SDS011;76853;48.008;20.694;2024-03-17T03:26:34;58.98;;;57.82;;
86201;SDS011;76853;48.008;20.694;2024-03-17T03:27:36;60.22;;;59.03;;
86201;SDS011;76853;48.008;20.694;2024-03-17T03:28:38;57.78;;;56.42;;
86201;SDS011;76853;48.008;20.694;2024-03-17T03:29:41;57.42;;;56.65;;
86201;SDS011;76853;48.008;20.694;2024-03-17T03:30:43;58.63;;;57.22;;
86201;SDS011;76853;48.008;20.694;2024-03-17T03:31:45;55.82;;;54.88;;
86201;SDS011;76853;48.008;20.694;2024-03-17T03:32:49;57.07;;;55.50;;
86201;SDS011;76853;48.008;20.694;2024-03-17T03:33:54;56.45;;;54.88;;
86201;SDS011;76853;48.008;20.694;2024-03-17T03:35:00;54.27;;;53.53;;
86201;SDS011;76853;48.008;20.694;2024-03-17T03:36:09;55.83;;;54.87;;
86201;SDS011;76853;48.008;20.694;2024-03-17T03:37:21;55.78;;;54.38;;
86201;SDS011;76853;48.008;20.694;2024-03-17T03:38:23;54.60;;;53.15;;
86201;SDS011;76853;48.008;20.694;2024-03-17T03:39:25;56.00;;;53.92;;
86201;SDS011;76853;48.008;20.694;2024-03-17T03:40:33;56.48;;;54.42;;
86201;SDS011;76853;48.008;20.694;2024-03-17T03:41:35;53.73;;;52.10;;
86201;SDS011;76853;48.008;20.694;2024-03-17T03:42:39;54.08;;;52.63;;
86201;SDS011;76853;48.008;20.694;2024-03-17T03:43:43;55.72;;;54.12;;
86201;SDS011;76853;48.008;20.694;2024-03-17T03:44:47;61.33;;;60.05;;
86201;SDS011;76853;48.008;20.694;2024-03-17T03:45:50;65.13;;;62.87;;
86201;SDS011;76853;48.008;20.694;2024-03-17T03:46:53;62.28;;;60.72;;
86201;SDS011;76853;48.008;20.694;2024-03-17T03:48:01;59.12;;;58.22;;
86201;SDS011;76853;48.008;20.694;2024-03-17T03:49:06;59.40;;;58.37;;
86201;SDS011;76853;48.008;20.694;2024-03-17T03:50:09;62.02;;;60.83;;
86201;SDS011;76853;48.008;20.694;2024-03-17T03:51:14;60.03;;;59.13;;
86201;SDS011;76853;48.008;20.694;2024-03-17T03:52:16;61.82;;;60.83;;
86201;SDS011;76853;48.008;20.694;2024-03-17T03:53:19;59.58;;;58.20;;
86201;SDS011;76853;48.008;20.694;2024-03-17T03:54:21;58.05;;;56.63;;
86201;SDS011;76853;48.008;20.694;2024-03-17T03:55:23;59.90;;;58.47;;
86201;SDS011;76853;48.008;20.694;2024-03-17T03:56:26;56.63;;;55.70;;
86201;SDS011;76853;48.008;20.694;2024-03-17T03:57:29;55.48;;;54.72;;
86201;SDS011;76853;48.008;20.694;2024-03-17T03:58:35;54.40;;;53.15;;
86201;SDS011;76853;48.008;20.694;2024-03-17T03:59:38;51.13;;;50.25;;
86201;SDS011;76853;48.008;20.694;2024-03-17T04:00:41;51.12;;;49.78;;
86201;SDS011;76853;48.008;20.694;2024-03-17T04:01:43;49.60;;;48.47;;
86201;SDS011;76853;48.008;20.694;2024-03-17T04:02:46;49.07;;;48.13;;
86201;SDS011;76853;48.008;20.694;2024-03-17T04:03:50;47.88;;;46.97;;
86201;SDS011;76853;48.008;20.694;2024-03-17T04:04:53;48.15;;;47.22;;
86201;SDS011;76853;48.008;20.694;2024-03-17T04:07:07;50.73;;;49.82;;
86201;SDS011;76853;48.008;20.694;2024-03-17T04:08:10;50.55;;;49.28;;
86201;SDS011;76853;48.008;20.694;2024-03-17T04:09:12;51.10;;;49.90;;
86201;SDS011;76853;48.008;20.694;2024-03-17T04:10:15;51.60;;;50.90;;
86201;SDS011;76853;48.008;20.694;2024-03-17T04:11:20;53.08;;;52.02;;
86201;SDS011;76853;48.008;20.694;2024-03-17T04:12:23;59.05;;;57.73;;
86201;SDS011;76853;48.008;20.694;2024-03-17T04:13:27;65.30;;;63.72;;
86201;SDS011;76853;48.008;20.694;2024-03-17T04:14:34;70.13;;;68.15;;
86201;SDS011;76853;48.008;20.694;2024-03-17T04:15:37;64.20;;;62.35;;
86201;SDS011;76853;48.008;20.694;2024-03-17T04:16:44;63.87;;;61.97;;
86201;SDS011;76853;48.008;20.694;2024-03-17T04:17:47;72.57;;;70.90;;
86201;SDS011;76853;48.008;20.694;2024-03-17T04:18:49;67.03;;;65.12;;
86201;SDS011;76853;48.008;20.694;2024-03-17T04:19:52;66.00;;;63.97;;
86201;SDS011;76853;48.008;20.694;2024-03-17T04:21:00;66.07;;;64.52;;
86201;SDS011;76853;48.008;20.694;2024-03-17T04:22:05;66.27;;;65.05;;
86201;SDS011;76853;48.008;20.694;2024-03-17T04:23:08;65.27;;;64.22;;
86201;SDS011;76853;48.008;20.694;2024-03-17T04:24:10;64.97;;;63.45;;
86201;SDS011;76853;48.008;20.694;2024-03-17T04:25:17;64.88;;;63.65;;
86201;SDS011;76853;48.008;20.694;2024-03-17T04:26:20;64.53;;;63.43;;
86201;SDS011;76853;48.008;20.694;2024-03-17T04:27:25;63.42;;;61.78;;
86201;SDS011;76853;48.008;20.694;2024-03-17T04:28:28;61.20;;;59.73;;
86201;SDS011;76853;48.008;20.694;2024-03-17T04:29:31;60.40;;;58.97;;
86201;SDS011;76853;48.008;20.694;2024-03-17T04:30:36;61.38;;;60.25;;
86201;SDS011;76853;48.008;20.694;2024-03-17T04:31:39;67.75;;;66.20;;
86201;SDS011;76853;48.008;20.694;2024-03-17T04:32:41;72.70;;;71.25;;
86201;SDS011;76853;48.008;20.694;2024-03-17T04:34:06;78.33;;;76.57;;
86201;SDS011;76853;48.008;20.694;2024-03-17T04:35:08;80.57;;;78.65;;
86201;SDS011;76853;48.008;20.694;2024-03-17T04:36:11;78.48;;;77.47;;
86201;SDS011;76853;48.008;20.694;2024-03-17T04:37:13;79.80;;;78.22;;
86201;SDS011;76853;48.008;20.694;2024-03-17T04:38:18;78.98;;;76.95;;
86201;SDS011;76853;48.008;20.694;2024-03-17T04:39:21;75.18;;;73.23;;
86201;SDS011;76853;48.008;20.694;2024-03-17T04:40:24;74.68;;;73.08;;
86201;SDS011;76853;48.008;20.694;2024-03-17T04:41:27;74.62;;;73.43;;
86201;SDS011;76853;48.008;20.694;2024-03-17T04:42:29;70.38;;;68.67;;
86201;SDS011;76853;48.008;20.694;2024-03-17T04:43:32;70.25;;;68.32;;
86201;SDS011;76853;48.008;20.694;2024-03-17T04:44:34;72.63;;;70.55;;
86201;SDS011;76853;48.008;20.694;2024-03-17T04:45:36;72.32;;;70.57;;
86201;SDS011;76853;48.008;20.694;2024-03-17T04:46:39;71.73;;;70.32;;
86201;SDS011;76853;48.008;20.694;2024-03-17T04:47:42;68.52;;;67.00;;
86201;SDS011;76853;48.008;20.694;2024-03-17T04:48:44;65.40;;;63.58;;
86201;SDS011;76853;48.008;20.694;2024-03-17T04:49:46;64.60;;;62.80;;
86201;SDS011;76853;48.008;20.694;2024-03-17T04:50:58;64.45;;;62.53;;
86201;SDS011;76853;48.008;20.694;2024-03-17T04:52:01;64.15;;;62.13;;
86201;SDS011;76853;48.008;20.694;2024-03-17T04:53:06;63.43;;;61.42;;
86201;SDS011;76853;48.008;20.694;2024-03-17T04:54:09;59.87;;;59.05;;
86201;SDS011;76853;48.008;20.694;2024-03-17T04:55:11;59.83;;;58.22;;
86201;SDS011;76853;48.008;20.694;2024-03-17T04:56:16;58.18;;;56.23;;
86201;SDS011;76853;48.008;20.694;2024-03-17T04:57:18;61.75;;;60.27;;
86201;SDS011;76853;48.008;20.694;2024-03-17T04:58:20;56.78;;;56.45;;
86201;SDS011;76853;48.008;20.694;2024-03-17T04:59:33;55.88;;;55.57;;
86201;SDS011;76853;48.008;20.694;2024-03-17T05:00:37;56.92;;;56.05;;
86201;SDS011;76853;48.008;20.694;2024-03-17T05:01:40;55.50;;;53.93;;
86201;SDS011;76853;48.008;20.694;2024-03-17T05:02:42;54.28;;;52.65;;
86201;SDS011;76853;48.008;20.694;2024-03-17T05:03:45;51.87;;;50.48;;
86201;SDS011;76853;48.008;20.694;2024-03-17T05:04:47;53.33;;;52.15;;
86201;SDS011;76853;48.008;20.694;2024-03-17T05:05:57;54.40;;;52.87;;
86201;SDS011;76853;48.008;20.694;2024-03-17T05:07:04;56.45;;;55.08;;
86201;SDS011;76853;48.008;20.694;2024-03-17T05:08:07;54.45;;;53.62;;
86201;SDS011;76853;48.008;20.694;2024-03-17T05:09:09;52.60;;;51.48;;
86201;SDS011;76853;48.008;20.694;2024-03-17T05:10:14;54.28;;;52.53;;
86201;SDS011;76853;48.008;20.694;2024-03-17T05:11:17;54.72;;;52.53;;
86201;SDS011;76853;48.008;20.694;2024-03-17T05:12:20;54.02;;;51.80;;
86201;SDS011;76853;48.008;20.694;2024-03-17T05:13:24;53.25;;;51.62;;
86201;SDS011;76853;48.008;20.694;2024-03-17T05:14:28;52.92;;;51.32;;
86201;SDS011;76853;48.008;20.694;2024-03-17T05:15:29;52.68;;;51.23;;
86201;SDS011;76853;48.008;20.694;2024-03-17T05:16:32;53.32;;;51.67;;
86201;SDS011;76853;48.008;20.694;2024-03-17T05:17:34;52.75;;;50.78;;
86201;SDS011;76853;48.008;20.694;2024-03-17T05:18:37;54.57;;;52.67;;
86201;SDS011;76853;48.008;20.694;2024-03-17T05:19:41;54.47;;;53.13;;
86201;SDS011;76853;48.008;20.694;2024-03-17T05:20:44;53.02;;;51.92;;
86201;SDS011;76853;48.008;20.694;2024-03-17T05:21:47;53.22;;;52.00;;
86201;SDS011;76853;48.008;20.694;2024-03-17T05:22:51;55.65;;;53.37;;
86201;SDS011;76853;48.008;20.694;2024-03-17T05:23:54;55.32;;;53.32;;
86201;SDS011;76853;48.008;20.694;2024-03-17T05:24:59;53.57;;;52.25;;
86201;SDS011;76853;48.008;20.694;2024-03-17T05:26:01;56.58;;;55.38;;
86201;SDS011;76853;48.008;20.694;2024-03-17T05:27:05;56.42;;;55.32;;
86201;SDS011;76853;48.008;20.694;2024-03-17T05:28:08;57.70;;;56.47;;
86201;SDS011;76853;48.008;20.694;2024-03-17T05:29:10;58.00;;;56.75;;
86201;SDS011;76853;48.008;20.694;2024-03-17T05:30:12;59.07;;;57.63;;
86201;SDS011;76853;48.008;20.694;2024-03-17T05:31:15;60.52;;;59.10;;
86201;SDS011;76853;48.008;20.694;2024-03-17T05:32:19;59.30;;;57.53;;
86201;SDS011;76853;48.008;20.694;2024-03-17T05:33:21;56.75;;;55.12;;
86201;SDS011;76853;48.008;20.694;2024-03-17T05:34:25;57.92;;;56.23;;
86201;SDS011;76853;48.008;20.694;2024-03-17T05:35:27;57.02;;;55.62;;
86201;SDS011;76853;48.008;20.694;2024-03-17T05:36:30;58.97;;;57.47;;
86201;SDS011;76853;48.008;20.694;2024-03-17T05:37:35;57.00;;;55.57;;
86201;SDS011;76853;48.008;20.694;2024-03-17T05:38:37;59.28;;;57.72;;
86201;SDS011;76853;48.008;20.694;2024-03-17T05:39:39;57.97;;;57.28;;
86201;SDS011;76853;48.008;20.694;2024-03-17T05:40:42;56.90;;;56.60;;
86201;SDS011;76853;48.008;20.694;2024-03-17T05:41:45;57.75;;;56.70;;
86201;SDS011;76853;48.008;20.694;2024-03-17T05:42:51;60.55;;;58.87;;
86201;SDS011;76853;48.008;20.694;2024-03-17T05:43:56;60.72;;;58.58;;
86201;SDS011;76853;48.008;20.694;2024-03-17T05:45:05;59.68;;;58.37;;
86201;SDS011;76853;48.008;20.694;2024-03-17T05:46:11;59.22;;;57.55;;
86201;SDS011;76853;48.008;20.694;2024-03-17T05:47:17;55.88;;;54.97;;
86201;SDS011;76853;48.008;20.694;2024-03-17T05:48:20;56.33;;;54.73;;
86201;SDS011;76853;48.008;20.694;2024-03-17T05:49:22;55.00;;;53.30;;
86201;SDS011;76853;48.008;20.694;2024-03-17T05:50:25;55.22;;;53.50;;
86201;SDS011;76853;48.008;20.694;2024-03-17T05:51:29;53.73;;;52.33;;
86201;SDS011;76853;48.008;20.694;2024-03-17T05:52:31;52.68;;;51.48;;
86201;SDS011;76853;48.008;20.694;2024-03-17T05:53:33;53.02;;;51.77;;
86201;SDS011;76853;48.008;20.694;2024-03-17T05:54:37;53.72;;;52.10;;
86201;SDS011;76853;48.008;20.694;2024-03-17T05:55:39;51.97;;;50.85;;
86201;SDS011;76853;48.008;20.694;2024-03-17T05:56:42;53.27;;;51.82;;
86201;SDS011;76853;48.008;20.694;2024-03-17T05:57:45;52.12;;;50.57;;
86201;SDS011;76853;48.008;20.694;2024-03-17T05:58:47;51.67;;;50.32;;
86201;SDS011;76853;48.008;20.694;2024-03-17T05:59:52;53.55;;;52.22;;
86201;SDS011;76853;48.008;20.694;2024-03-17T06:00:55;54.57;;;52.90;;
86201;SDS011;76853;48.008;20.694;2024-03-17T06:01:57;54.80;;;53.12;;
86201;SDS011;76853;48.008;20.694;2024-03-17T06:02:59;52.27;;;51.13;;
86201;SDS011;76853;48.008;20.694;2024-03-17T06:04:01;60.45;;;59.07;;
86201;SDS011;76853;48.008;20.694;2024-03-17T06:05:06;61.90;;;60.22;;
86201;SDS011;76853;48.008;20.694;2024-03-17T06:06:12;58.05;;;56.83;;
86201;SDS011;76853;48.008;20.694;2024-03-17T06:07:17;53.55;;;52.43;;